sensor_id;sensor_type;location;lat;lon;timestamp;P1;durP1;ratioP1;P2;durP2;ratioP2
76745;SDS011;65671;49.976;20.038;2023-02-26T00:04:07;23.10;;;11.55;;
76745;SDS011;65671;49.976;20.038;2023-02-26T00:06:36;23.98;;;11.98;;
76745;SDS011;65671;49.976;20.038;2023-02-26T00:09:03;18.88;;;10.18;;
76745;SDS011;65671;49.976;20.038;2023-02-26T00:11:30;21.08;;;11.05;;
76745;SDS011;65671;49.976;20.038;2023-02-26T00:13:56;20.58;;;10.98;;
76745;SDS011;65671;49.976;20.038;2023-02-26T00:16:27;21.90;;;12.00;;
76745;SDS011;65671;49.976;20.038;2023-02-26T00:18:59;23.92;;;10.85;;
76745;SDS011;65671;49.976;20.038;2023-02-26T00:21:27;27.50;;;12.98;;
76745;SDS011;65671;49.976;20.038;2023-02-26T00:23:54;22.23;;;11.40;;
76745;SDS011;65671;49.976;20.038;2023-02-26T00:26:20;25.83;;;12.77;;
76745;SDS011;65671;49.976;20.038;2023-02-26T00:28:48;22.52;;;12.68;;
76745;SDS011;65671;49.976;20.038;2023-02-26T00:31:14;20.20;;;9.82;;
76745;SDS011;65671;49.976;20.038;2023-02-26T00:33:41;20.73;;;11.98;;
76745;SDS011;65671;49.976;20.038;2023-02-26T00:36:12;20.60;;;9.63;;
76745;SDS011;65671;49.976;20.038;2023-02-26T00:38:46;20.25;;;8.88;;
76745;SDS011;65671;49.976;20.038;2023-02-26T00:41:28;14.65;;;7.80;;
76745;SDS011;65671;49.976;20.038;2023-02-26T00:43:54;15.27;;;8.55;;
76745;SDS011;65671;49.976;20.038;2023-02-26T00:51:31;11.20;;;5.88;;
76745;SDS011;65671;49.976;20.038;2023-02-26T00:54:11;10.95;;;6.07;;
76745;SDS011;65671;49.976;20.038;2023-02-26T00:56:42;8.32;;;5.22;;
76745;SDS011;65671;49.976;20.038;2023-02-26T00:59:07;13.23;;;6.38;;
76745;SDS011;65671;49.976;20.038;2023-02-26T01:03:59;8.55;;;5.38;;
76745;SDS011;65671;49.976;20.038;2023-02-26T01:06:27;11.15;;;6.22;;
76745;SDS011;65671;49.976;20.038;2023-02-26T01:11:57;17.95;;;9.20;;
76745;SDS011;65671;49.976;20.038;2023-02-26T01:14:27;17.80;;;8.95;;
76745;SDS011;65671;49.976;20.038;2023-02-26T01:17:01;16.73;;;9.25;;
76745;SDS011;65671;49.976;20.038;2023-02-26T01:22:02;19.88;;;10.75;;
76745;SDS011;65671;49.976;20.038;2023-02-26T01:24:34;19.60;;;9.48;;
76745;SDS011;65671;49.976;20.038;2023-02-26T01:27:01;19.30;;;9.60;;
76745;SDS011;65671;49.976;20.038;2023-02-26T01:29:27;21.98;;;10.45;;
76745;SDS011;65671;49.976;20.038;2023-02-26T01:32:01;21.77;;;10.57;;
76745;SDS011;65671;49.976;20.038;2023-02-26T01:34:41;20.65;;;10.77;;
76745;SDS011;65671;49.976;20.038;2023-02-26T01:37:18;21.90;;;11.57;;
76745;SDS011;65671;49.976;20.038;2023-02-26T01:42:52;18.77;;;10.60;;
76745;SDS011;65671;49.976;20.038;2023-02-26T01:45:28;16.92;;;10.18;;
76745;SDS011;65671;49.976;20.038;2023-02-26T01:48:02;18.38;;;7.72;;
76745;SDS011;65671;49.976;20.038;2023-02-26T01:50:32;18.42;;;8.48;;
76745;SDS011;65671;49.976;20.038;2023-02-26T01:55:56;12.55;;;7.80;;
76745;SDS011;65671;49.976;20.038;2023-02-26T01:58:26;15.82;;;8.13;;
76745;SDS011;65671;49.976;20.038;2023-02-26T02:00:55;12.95;;;7.80;;
76745;SDS011;65671;49.976;20.038;2023-02-26T02:03:21;12.50;;;6.60;;
76745;SDS011;65671;49.976;20.038;2023-02-26T02:05:51;17.35;;;8.27;;
76745;SDS011;65671;49.976;20.038;2023-02-26T02:10:49;11.65;;;6.93;;
76745;SDS011;65671;49.976;20.038;2023-02-26T02:13:22;12.88;;;7.25;;
76745;SDS011;65671;49.976;20.038;2023-02-26T02:18:43;11.10;;;6.22;;
76745;SDS011;65671;49.976;20.038;2023-02-26T02:24:12;17.25;;;6.30;;
76745;SDS011;65671;49.976;20.038;2023-02-26T02:26:59;13.93;;;6.85;;
76745;SDS011;65671;49.976;20.038;2023-02-26T02:29:39;10.98;;;6.45;;
76745;SDS011;65671;49.976;20.038;2023-02-26T02:32:10;13.10;;;7.20;;
76745;SDS011;65671;49.976;20.038;2023-02-26T02:34:54;11.90;;;6.28;;
76745;SDS011;65671;49.976;20.038;2023-02-26T02:37:35;13.63;;;6.53;;
76745;SDS011;65671;49.976;20.038;2023-02-26T02:42:41;19.92;;;7.97;;
76745;SDS011;65671;49.976;20.038;2023-02-26T02:47:44;16.48;;;8.35;;
76745;SDS011;65671;49.976;20.038;2023-02-26T02:50:35;17.10;;;8.65;;
76745;SDS011;65671;49.976;20.038;2023-02-26T02:53:08;19.05;;;9.80;;
76745;SDS011;65671;49.976;20.038;2023-02-26T02:55:58;18.63;;;10.20;;
76745;SDS011;65671;49.976;20.038;2023-02-26T02:58:30;17.05;;;8.45;;
76745;SDS011;65671;49.976;20.038;2023-02-26T03:01:02;16.02;;;8.27;;
76745;SDS011;65671;49.976;20.038;2023-02-26T03:06:13;16.70;;;8.93;;
76745;SDS011;65671;49.976;20.038;2023-02-26T03:08:39;19.42;;;9.18;;
76745;SDS011;65671;49.976;20.038;2023-02-26T03:11:06;16.20;;;8.10;;
76745;SDS011;65671;49.976;20.038;2023-02-26T03:13:32;17.55;;;8.90;;
76745;SDS011;65671;49.976;20.038;2023-02-26T03:21:16;15.65;;;8.85;;
76745;SDS011;65671;49.976;20.038;2023-02-26T03:23:54;13.13;;;7.88;;
76745;SDS011;65671;49.976;20.038;2023-02-26T03:26:29;14.38;;;8.98;;
76745;SDS011;65671;49.976;20.038;2023-02-26T03:29:04;15.27;;;8.30;;
76745;SDS011;65671;49.976;20.038;2023-02-26T03:31:36;16.20;;;7.75;;
76745;SDS011;65671;49.976;20.038;2023-02-26T03:34:12;13.95;;;7.35;;
76745;SDS011;65671;49.976;20.038;2023-02-26T03:36:45;12.95;;;7.40;;
76745;SDS011;65671;49.976;20.038;2023-02-26T03:39:19;16.83;;;8.15;;
76745;SDS011;65671;49.976;20.038;2023-02-26T03:41:57;15.88;;;8.20;;
76745;SDS011;65671;49.976;20.038;2023-02-26T03:44:35;13.57;;;7.40;;
76745;SDS011;65671;49.976;20.038;2023-02-26T03:47:07;15.55;;;7.15;;
76745;SDS011;65671;49.976;20.038;2023-02-26T03:49:44;9.90;;;5.65;;
76745;SDS011;65671;49.976;20.038;2023-02-26T03:52:13;9.38;;;6.30;;
76745;SDS011;65671;49.976;20.038;2023-02-26T03:54:48;9.02;;;5.15;;
76745;SDS011;65671;49.976;20.038;2023-02-26T03:57:19;6.85;;;4.63;;
76745;SDS011;65671;49.976;20.038;2023-02-26T04:02:11;5.13;;;3.77;;
76745;SDS011;65671;49.976;20.038;2023-02-26T04:04:45;5.88;;;4.30;;
76745;SDS011;65671;49.976;20.038;2023-02-26T04:07:16;7.10;;;3.88;;
76745;SDS011;65671;49.976;20.038;2023-02-26T04:09:46;4.47;;;3.42;;
76745;SDS011;65671;49.976;20.038;2023-02-26T04:12:13;6.22;;;4.18;;
76745;SDS011;65671;49.976;20.038;2023-02-26T04:14:39;7.60;;;3.47;;
76745;SDS011;65671;49.976;20.038;2023-02-26T04:19:31;4.70;;;3.30;;
76745;SDS011;65671;49.976;20.038;2023-02-26T04:24:22;7.80;;;3.73;;
76745;SDS011;65671;49.976;20.038;2023-02-26T04:29:13;6.00;;;3.17;;
76745;SDS011;65671;49.976;20.038;2023-02-26T04:34:04;3.85;;;2.45;;
76745;SDS011;65671;49.976;20.038;2023-02-26T04:38:55;2.40;;;1.97;;
76745;SDS011;65671;49.976;20.038;2023-02-26T04:41:20;5.38;;;2.88;;
76745;SDS011;65671;49.976;20.038;2023-02-26T04:46:12;5.63;;;2.85;;
76745;SDS011;65671;49.976;20.038;2023-02-26T04:51:06;4.47;;;3.17;;
76745;SDS011;65671;49.976;20.038;2023-02-26T04:53:31;3.67;;;2.70;;
76745;SDS011;65671;49.976;20.038;2023-02-26T04:55:57;3.67;;;2.55;;
76745;SDS011;65671;49.976;20.038;2023-02-26T05:00:51;5.32;;;2.80;;
76745;SDS011;65671;49.976;20.038;2023-02-26T05:03:20;6.72;;;3.00;;
76745;SDS011;65671;49.976;20.038;2023-02-26T05:05:46;6.15;;;3.13;;
76745;SDS011;65671;49.976;20.038;2023-02-26T05:08:13;4.13;;;2.40;;
76745;SDS011;65671;49.976;20.038;2023-02-26T05:10:41;6.90;;;2.80;;
76745;SDS011;65671;49.976;20.038;2023-02-26T05:15:32;4.22;;;2.53;;
76745;SDS011;65671;49.976;20.038;2023-02-26T05:20:23;4.30;;;2.63;;
76745;SDS011;65671;49.976;20.038;2023-02-26T05:25:14;3.58;;;2.60;;
76745;SDS011;65671;49.976;20.038;2023-02-26T05:30:10;5.45;;;2.53;;
76745;SDS011;65671;49.976;20.038;2023-02-26T05:32:39;5.18;;;2.70;;
76745;SDS011;65671;49.976;20.038;2023-02-26T05:35:05;5.07;;;3.03;;
76745;SDS011;65671;49.976;20.038;2023-02-26T05:37:31;5.13;;;3.10;;
76745;SDS011;65671;49.976;20.038;2023-02-26T05:39:57;5.15;;;3.20;;
76745;SDS011;65671;49.976;20.038;2023-02-26T05:44:49;5.10;;;2.42;;
76745;SDS011;65671;49.976;20.038;2023-02-26T05:47:15;4.95;;;3.10;;
76745;SDS011;65671;49.976;20.038;2023-02-26T05:49:41;4.03;;;2.60;;
76745;SDS011;65671;49.976;20.038;2023-02-26T05:52:06;4.97;;;2.38;;
76745;SDS011;65671;49.976;20.038;2023-02-26T05:56:57;3.77;;;2.03;;
76745;SDS011;65671;49.976;20.038;2023-02-26T06:01:48;5.25;;;2.90;;
76745;SDS011;65671;49.976;20.038;2023-02-26T06:06:39;3.10;;;2.38;;
76745;SDS011;65671;49.976;20.038;2023-02-26T06:09:05;6.03;;;2.40;;
76745;SDS011;65671;49.976;20.038;2023-02-26T06:11:30;3.30;;;1.98;;
76745;SDS011;65671;49.976;20.038;2023-02-26T06:13:56;4.22;;;2.42;;
76745;SDS011;65671;49.976;20.038;2023-02-26T06:18:48;3.72;;;2.63;;
76745;SDS011;65671;49.976;20.038;2023-02-26T06:23:40;4.75;;;2.35;;
76745;SDS011;65671;49.976;20.038;2023-02-26T06:26:06;5.32;;;2.35;;
76745;SDS011;65671;49.976;20.038;2023-02-26T06:28:32;4.13;;;2.47;;
76745;SDS011;65671;49.976;20.038;2023-02-26T06:30:58;5.60;;;3.03;;
76745;SDS011;65671;49.976;20.038;2023-02-26T06:33:26;5.63;;;2.85;;
76745;SDS011;65671;49.976;20.038;2023-02-26T06:35:52;5.32;;;2.63;;
76745;SDS011;65671;49.976;20.038;2023-02-26T06:40:44;5.80;;;3.10;;
76745;SDS011;65671;49.976;20.038;2023-02-26T06:43:11;6.85;;;2.70;;
76745;SDS011;65671;49.976;20.038;2023-02-26T06:45:37;7.03;;;3.00;;
76745;SDS011;65671;49.976;20.038;2023-02-26T06:50:28;4.57;;;2.63;;
76745;SDS011;65671;49.976;20.038;2023-02-26T06:55:19;3.92;;;2.45;;
76745;SDS011;65671;49.976;20.038;2023-02-26T06:57:46;3.95;;;2.40;;
76745;SDS011;65671;49.976;20.038;2023-02-26T07:00:12;7.57;;;3.00;;
76745;SDS011;65671;49.976;20.038;2023-02-26T07:02:38;4.57;;;3.13;;
76745;SDS011;65671;49.976;20.038;2023-02-26T07:05:04;6.63;;;3.03;;
76745;SDS011;65671;49.976;20.038;2023-02-26T07:07:30;5.10;;;3.03;;
76745;SDS011;65671;49.976;20.038;2023-02-26T07:09:55;6.55;;;3.13;;
76745;SDS011;65671;49.976;20.038;2023-02-26T07:12:21;6.93;;;2.80;;
76745;SDS011;65671;49.976;20.038;2023-02-26T07:17:12;5.63;;;3.00;;
76745;SDS011;65671;49.976;20.038;2023-02-26T07:19:47;5.93;;;2.72;;
76745;SDS011;65671;49.976;20.038;2023-02-26T07:22:17;8.30;;;2.83;;
76745;SDS011;65671;49.976;20.038;2023-02-26T07:24:44;9.43;;;3.30;;
76745;SDS011;65671;49.976;20.038;2023-02-26T07:29:36;5.70;;;2.97;;
76745;SDS011;65671;49.976;20.038;2023-02-26T07:34:28;4.47;;;2.90;;
76745;SDS011;65671;49.976;20.038;2023-02-26T07:36:53;4.68;;;2.85;;
76745;SDS011;65671;49.976;20.038;2023-02-26T07:41:45;5.97;;;2.80;;
76745;SDS011;65671;49.976;20.038;2023-02-26T07:44:10;4.13;;;2.90;;
76745;SDS011;65671;49.976;20.038;2023-02-26T07:46:37;6.88;;;2.75;;
76745;SDS011;65671;49.976;20.038;2023-02-26T07:49:02;6.20;;;3.30;;
76745;SDS011;65671;49.976;20.038;2023-02-26T07:53:53;5.32;;;3.08;;
76745;SDS011;65671;49.976;20.038;2023-02-26T07:58:44;4.37;;;2.23;;
76745;SDS011;65671;49.976;20.038;2023-02-26T08:03:35;7.93;;;2.90;;
76745;SDS011;65671;49.976;20.038;2023-02-26T08:06:00;6.20;;;2.67;;
76745;SDS011;65671;49.976;20.038;2023-02-26T08:08:27;4.50;;;2.75;;
76745;SDS011;65671;49.976;20.038;2023-02-26T08:10:53;7.53;;;3.53;;
76745;SDS011;65671;49.976;20.038;2023-02-26T08:13:19;5.30;;;3.13;;
76745;SDS011;65671;49.976;20.038;2023-02-26T08:18:11;5.05;;;3.00;;
76745;SDS011;65671;49.976;20.038;2023-02-26T08:20:37;4.32;;;2.65;;
76745;SDS011;65671;49.976;20.038;2023-02-26T08:25:28;3.13;;;1.92;;
76745;SDS011;65671;49.976;20.038;2023-02-26T08:30:19;1.73;;;1.13;;
76745;SDS011;65671;49.976;20.038;2023-02-26T08:35:10;3.47;;;1.88;;
76745;SDS011;65671;49.976;20.038;2023-02-26T08:37:37;2.95;;;1.90;;
76745;SDS011;65671;49.976;20.038;2023-02-26T08:42:29;3.78;;;2.45;;
76745;SDS011;65671;49.976;20.038;2023-02-26T08:47:20;4.07;;;2.72;;
76745;SDS011;65671;49.976;20.038;2023-02-26T08:49:45;4.85;;;2.92;;
76745;SDS011;65671;49.976;20.038;2023-02-26T08:54:36;3.85;;;2.42;;
76745;SDS011;65671;49.976;20.038;2023-02-26T08:59:28;4.22;;;2.70;;
76745;SDS011;65671;49.976;20.038;2023-02-26T09:04:19;5.00;;;2.50;;
76745;SDS011;65671;49.976;20.038;2023-02-26T09:06:45;4.53;;;2.65;;
76745;SDS011;65671;49.976;20.038;2023-02-26T09:11:36;5.78;;;2.40;;
76745;SDS011;65671;49.976;20.038;2023-02-26T09:16:27;2.42;;;1.85;;
76745;SDS011;65671;49.976;20.038;2023-02-26T09:18:54;7.88;;;3.30;;
76745;SDS011;65671;49.976;20.038;2023-02-26T09:21:21;5.40;;;2.55;;
76745;SDS011;65671;49.976;20.038;2023-02-26T09:23:46;5.10;;;2.88;;
76745;SDS011;65671;49.976;20.038;2023-02-26T09:28:37;3.50;;;2.10;;
76745;SDS011;65671;49.976;20.038;2023-02-26T09:33:31;3.78;;;2.17;;
76745;SDS011;65671;49.976;20.038;2023-02-26T09:35:57;3.78;;;2.30;;
76745;SDS011;65671;49.976;20.038;2023-02-26T09:38:23;3.13;;;2.28;;
76745;SDS011;65671;49.976;20.038;2023-02-26T09:52:01;2.78;;;2.15;;
76745;SDS011;65671;49.976;20.038;2023-02-26T09:54:38;4.32;;;2.70;;
76745;SDS011;65671;49.976;20.038;2023-02-26T09:57:09;3.85;;;2.05;;
76745;SDS011;65671;49.976;20.038;2023-02-26T09:59:39;3.65;;;2.53;;
76745;SDS011;65671;49.976;20.038;2023-02-26T10:12:44;8.23;;;2.70;;
76745;SDS011;65671;49.976;20.038;2023-02-26T10:15:16;7.88;;;3.40;;
76745;SDS011;65671;49.976;20.038;2023-02-26T10:17:56;7.57;;;3.28;;
76745;SDS011;65671;49.976;20.038;2023-02-26T10:20:36;11.13;;;3.75;;
76745;SDS011;65671;49.976;20.038;2023-02-26T10:34:24;5.85;;;3.53;;
76745;SDS011;65671;49.976;20.038;2023-02-26T10:37:03;5.80;;;3.22;;
76745;SDS011;65671;49.976;20.038;2023-02-26T10:39:57;4.03;;;2.60;;
76745;SDS011;65671;49.976;20.038;2023-02-26T10:42:31;5.07;;;2.72;;
76745;SDS011;65671;49.976;20.038;2023-02-26T10:50:56;5.38;;;2.85;;
76745;SDS011;65671;49.976;20.038;2023-02-26T10:53:25;4.70;;;2.50;;
76745;SDS011;65671;49.976;20.038;2023-02-26T10:55:55;3.63;;;2.22;;
76745;SDS011;65671;49.976;20.038;2023-02-26T10:58:31;4.75;;;2.45;;
76745;SDS011;65671;49.976;20.038;2023-02-26T11:00:56;4.13;;;2.53;;
76745;SDS011;65671;49.976;20.038;2023-02-26T11:03:29;4.18;;;2.45;;
76745;SDS011;65671;49.976;20.038;2023-02-26T11:05:58;3.03;;;2.10;;
76745;SDS011;65671;49.976;20.038;2023-02-26T11:08:30;4.45;;;2.70;;
76745;SDS011;65671;49.976;20.038;2023-02-26T11:11:04;3.75;;;2.17;;
76745;SDS011;65671;49.976;20.038;2023-02-26T11:13:31;4.65;;;2.67;;
76745;SDS011;65671;49.976;20.038;2023-02-26T11:16:04;3.60;;;2.17;;
76745;SDS011;65671;49.976;20.038;2023-02-26T11:18:38;3.38;;;2.22;;
76745;SDS011;65671;49.976;20.038;2023-02-26T11:21:06;4.97;;;2.30;;
76745;SDS011;65671;49.976;20.038;2023-02-26T11:23:33;4.50;;;2.40;;
76745;SDS011;65671;49.976;20.038;2023-02-26T11:26:02;5.13;;;2.67;;
76745;SDS011;65671;49.976;20.038;2023-02-26T11:28:34;4.53;;;2.40;;
76745;SDS011;65671;49.976;20.038;2023-02-26T11:31:09;5.05;;;2.00;;
76745;SDS011;65671;49.976;20.038;2023-02-26T11:33:37;5.03;;;2.50;;
76745;SDS011;65671;49.976;20.038;2023-02-26T11:36:10;4.72;;;2.28;;
76745;SDS011;65671;49.976;20.038;2023-02-26T11:38:39;4.80;;;2.40;;
76745;SDS011;65671;49.976;20.038;2023-02-26T11:41:08;5.97;;;2.60;;
76745;SDS011;65671;49.976;20.038;2023-02-26T11:43:40;3.33;;;2.22;;
76745;SDS011;65671;49.976;20.038;2023-02-26T11:46:08;5.57;;;2.65;;
76745;SDS011;65671;49.976;20.038;2023-02-26T11:48:47;4.97;;;2.97;;
76745;SDS011;65671;49.976;20.038;2023-02-26T11:51:14;5.68;;;3.03;;
76745;SDS011;65671;49.976;20.038;2023-02-26T11:53:48;7.30;;;3.03;;
76745;SDS011;65671;49.976;20.038;2023-02-26T11:56:33;4.40;;;2.60;;
76745;SDS011;65671;49.976;20.038;2023-02-26T11:59:22;4.43;;;2.60;;
76745;SDS011;65671;49.976;20.038;2023-02-26T12:01:49;5.20;;;2.40;;
76745;SDS011;65671;49.976;20.038;2023-02-26T12:04:21;4.60;;;2.53;;
76745;SDS011;65671;49.976;20.038;2023-02-26T12:06:49;4.50;;;2.30;;
76745;SDS011;65671;49.976;20.038;2023-02-26T12:09:17;3.45;;;2.05;;
76745;SDS011;65671;49.976;20.038;2023-02-26T12:16:57;6.00;;;2.70;;
76745;SDS011;65671;49.976;20.038;2023-02-26T12:31:31;5.30;;;2.40;;
76745;SDS011;65671;49.976;20.038;2023-02-26T12:37:27;6.38;;;2.03;;
76745;SDS011;65671;49.976;20.038;2023-02-26T13:01:59;3.63;;;1.95;;
76745;SDS011;65671;49.976;20.038;2023-02-26T13:16:01;8.15;;;3.15;;
76745;SDS011;65671;49.976;20.038;2023-02-26T13:21:20;5.95;;;3.10;;
76745;SDS011;65671;49.976;20.038;2023-02-26T13:23:52;4.95;;;2.28;;
76745;SDS011;65671;49.976;20.038;2023-02-26T13:26:22;5.15;;;2.90;;
76745;SDS011;65671;49.976;20.038;2023-02-26T13:28:55;4.00;;;2.72;;
76745;SDS011;65671;49.976;20.038;2023-02-26T13:31:32;4.75;;;2.63;;
76745;SDS011;65671;49.976;20.038;2023-02-26T13:34:24;3.60;;;2.65;;
76745;SDS011;65671;49.976;20.038;2023-02-26T13:37:05;5.88;;;2.85;;
76745;SDS011;65671;49.976;20.038;2023-02-26T13:39:48;4.70;;;2.95;;
76745;SDS011;65671;49.976;20.038;2023-02-26T13:53:45;7.72;;;3.70;;
76745;SDS011;65671;49.976;20.038;2023-02-26T13:59:03;9.32;;;3.55;;
76745;SDS011;65671;49.976;20.038;2023-02-26T14:01:51;5.80;;;3.47;;
76745;SDS011;65671;49.976;20.038;2023-02-26T14:06:47;4.15;;;2.30;;
76745;SDS011;65671;49.976;20.038;2023-02-26T14:12:33;4.45;;;2.17;;
76745;SDS011;65671;49.976;20.038;2023-02-26T14:14:41;4.63;;;2.38;;
76745;SDS011;65671;49.976;20.038;2023-02-26T14:19:44;4.50;;;2.28;;
76745;SDS011;65671;49.976;20.038;2023-02-26T14:22:48;5.03;;;2.45;;
76745;SDS011;65671;49.976;20.038;2023-02-26T14:25:24;6.05;;;2.60;;
76745;SDS011;65671;49.976;20.038;2023-02-26T14:33:28;5.32;;;2.80;;
76745;SDS011;65671;49.976;20.038;2023-02-26T14:35:56;5.18;;;2.50;;
76745;SDS011;65671;49.976;20.038;2023-02-26T14:38:24;6.03;;;3.00;;
76745;SDS011;65671;49.976;20.038;2023-02-26T14:44:01;4.78;;;3.00;;
76745;SDS011;65671;49.976;20.038;2023-02-26T14:46:30;6.03;;;3.03;;
76745;SDS011;65671;49.976;20.038;2023-02-26T14:48:58;5.40;;;2.72;;
76745;SDS011;65671;49.976;20.038;2023-02-26T14:59:21;4.50;;;2.67;;
76745;SDS011;65671;49.976;20.038;2023-02-26T15:05:01;4.10;;;2.17;;
76745;SDS011;65671;49.976;20.038;2023-02-26T15:23:41;5.85;;;3.30;;
76745;SDS011;65671;49.976;20.038;2023-02-26T15:26:15;5.28;;;2.70;;
76745;SDS011;65671;49.976;20.038;2023-02-26T15:28:45;6.68;;;3.60;;
76745;SDS011;65671;49.976;20.038;2023-02-26T15:31:12;6.75;;;3.00;;
76745;SDS011;65671;49.976;20.038;2023-02-26T15:36:08;6.60;;;2.78;;
76745;SDS011;65671;49.976;20.038;2023-02-26T15:38:41;5.43;;;3.35;;
76745;SDS011;65671;49.976;20.038;2023-02-26T15:41:12;6.35;;;3.20;;
76745;SDS011;65671;49.976;20.038;2023-02-26T15:43:50;5.40;;;3.10;;
76745;SDS011;65671;49.976;20.038;2023-02-26T15:46:26;8.13;;;3.35;;
76745;SDS011;65671;49.976;20.038;2023-02-26T15:48:58;6.05;;;3.10;;
76745;SDS011;65671;49.976;20.038;2023-02-26T15:51:26;6.97;;;3.45;;
76745;SDS011;65671;49.976;20.038;2023-02-26T15:53:53;6.13;;;3.70;;
76745;SDS011;65671;49.976;20.038;2023-02-26T15:56:25;5.38;;;3.08;;
76745;SDS011;65671;49.976;20.038;2023-02-26T15:58:59;9.68;;;3.25;;
76745;SDS011;65671;49.976;20.038;2023-02-26T16:01:28;3.38;;;2.60;;
76745;SDS011;65671;49.976;20.038;2023-02-26T16:04:00;5.07;;;2.72;;
76745;SDS011;65671;49.976;20.038;2023-02-26T16:06:29;8.82;;;2.90;;
76745;SDS011;65671;49.976;20.038;2023-02-26T16:08:58;5.22;;;3.22;;
76745;SDS011;65671;49.976;20.038;2023-02-26T16:11:25;4.13;;;2.63;;
76745;SDS011;65671;49.976;20.038;2023-02-26T16:13:59;3.83;;;2.33;;
76745;SDS011;65671;49.976;20.038;2023-02-26T16:16:26;5.68;;;2.78;;
76745;SDS011;65671;49.976;20.038;2023-02-26T16:18:59;5.47;;;3.05;;
76745;SDS011;65671;49.976;20.038;2023-02-26T16:21:32;3.60;;;2.50;;
76745;SDS011;65671;49.976;20.038;2023-02-26T16:24:01;7.88;;;3.42;;
76745;SDS011;65671;49.976;20.038;2023-02-26T16:26:36;5.53;;;3.05;;
76745;SDS011;65671;49.976;20.038;2023-02-26T16:29:05;5.22;;;2.53;;
76745;SDS011;65671;49.976;20.038;2023-02-26T16:31:40;4.78;;;2.90;;
76745;SDS011;65671;49.976;20.038;2023-02-26T16:36:47;9.07;;;3.88;;
76745;SDS011;65671;49.976;20.038;2023-02-26T16:39:20;6.32;;;3.60;;
76745;SDS011;65671;49.976;20.038;2023-02-26T16:42:16;5.47;;;3.20;;
76745;SDS011;65671;49.976;20.038;2023-02-26T16:44:50;6.18;;;3.75;;
76745;SDS011;65671;49.976;20.038;2023-02-26T16:47:27;4.78;;;3.22;;
76745;SDS011;65671;49.976;20.038;2023-02-26T16:49:55;6.28;;;3.28;;
76745;SDS011;65671;49.976;20.038;2023-02-26T16:52:22;6.88;;;3.35;;
76745;SDS011;65671;49.976;20.038;2023-02-26T16:54:53;8.07;;;4.00;;
76745;SDS011;65671;49.976;20.038;2023-02-26T16:57:30;6.75;;;3.83;;
76745;SDS011;65671;49.976;20.038;2023-02-26T17:00:02;9.75;;;4.35;;
76745;SDS011;65671;49.976;20.038;2023-02-26T17:02:33;7.28;;;3.90;;
76745;SDS011;65671;49.976;20.038;2023-02-26T17:05:47;6.68;;;3.20;;
76745;SDS011;65671;49.976;20.038;2023-02-26T17:07:58;8.65;;;4.80;;
76745;SDS011;65671;49.976;20.038;2023-02-26T17:10:42;7.28;;;4.05;;
76745;SDS011;65671;49.976;20.038;2023-02-26T17:13:14;6.28;;;3.45;;
76745;SDS011;65671;49.976;20.038;2023-02-26T17:15:43;7.00;;;3.63;;
76745;SDS011;65671;49.976;20.038;2023-02-26T17:18:11;8.60;;;4.22;;
76745;SDS011;65671;49.976;20.038;2023-02-26T17:20:36;9.73;;;4.30;;
76745;SDS011;65671;49.976;20.038;2023-02-26T17:23:03;7.82;;;4.45;;
76745;SDS011;65671;49.976;20.038;2023-02-26T17:25:32;11.30;;;5.15;;
76745;SDS011;65671;49.976;20.038;2023-02-26T17:28:14;7.15;;;3.97;;
76745;SDS011;65671;49.976;20.038;2023-02-26T17:30:46;7.68;;;4.00;;
76745;SDS011;65671;49.976;20.038;2023-02-26T17:33:12;6.38;;;4.13;;
76745;SDS011;65671;49.976;20.038;2023-02-26T17:35:38;8.57;;;4.22;;
76745;SDS011;65671;49.976;20.038;2023-02-26T17:38:05;15.98;;;9.80;;
76745;SDS011;65671;49.976;20.038;2023-02-26T17:40:35;6.78;;;4.32;;
76745;SDS011;65671;49.976;20.038;2023-02-26T17:43:02;12.20;;;5.50;;
76745;SDS011;65671;49.976;20.038;2023-02-26T17:45:29;7.28;;;4.85;;
76745;SDS011;65671;49.976;20.038;2023-02-26T17:47:56;5.00;;;3.88;;
76745;SDS011;65671;49.976;20.038;2023-02-26T17:55:20;8.75;;;5.25;;
76745;SDS011;65671;49.976;20.038;2023-02-26T17:57:46;6.47;;;4.32;;
76745;SDS011;65671;49.976;20.038;2023-02-26T18:02:39;7.88;;;4.60;;
76745;SDS011;65671;49.976;20.038;2023-02-26T18:05:05;8.80;;;4.88;;
76745;SDS011;65671;49.976;20.038;2023-02-26T18:07:31;11.98;;;4.72;;
76745;SDS011;65671;49.976;20.038;2023-02-26T18:09:57;11.73;;;7.07;;
76745;SDS011;65671;49.976;20.038;2023-02-26T18:12:24;11.68;;;6.72;;
76745;SDS011;65671;49.976;20.038;2023-02-26T18:14:50;8.20;;;5.53;;
76745;SDS011;65671;49.976;20.038;2023-02-26T18:17:25;9.70;;;6.03;;
76745;SDS011;65671;49.976;20.038;2023-02-26T18:19:53;9.38;;;5.20;;
76745;SDS011;65671;49.976;20.038;2023-02-26T18:24:48;11.82;;;6.32;;
76745;SDS011;65671;49.976;20.038;2023-02-26T18:29:40;8.85;;;4.78;;
76745;SDS011;65671;49.976;20.038;2023-02-26T18:32:08;14.32;;;8.70;;
76745;SDS011;65671;49.976;20.038;2023-02-26T18:34:37;10.23;;;6.35;;
76745;SDS011;65671;49.976;20.038;2023-02-26T18:39:28;8.45;;;4.90;;
76745;SDS011;65671;49.976;20.038;2023-02-26T18:42:02;9.07;;;4.45;;
76745;SDS011;65671;49.976;20.038;2023-02-26T18:44:29;8.45;;;4.60;;
76745;SDS011;65671;49.976;20.038;2023-02-26T18:46:57;8.85;;;4.25;;
76745;SDS011;65671;49.976;20.038;2023-02-26T18:49:23;12.82;;;6.03;;
76745;SDS011;65671;49.976;20.038;2023-02-26T18:54:14;16.42;;;6.55;;
76745;SDS011;65671;49.976;20.038;2023-02-26T18:56:40;12.77;;;6.75;;
76745;SDS011;65671;49.976;20.038;2023-02-26T19:01:31;7.27;;;4.13;;
76745;SDS011;65671;49.976;20.038;2023-02-26T19:03:57;10.52;;;5.13;;
76745;SDS011;65671;49.976;20.038;2023-02-26T19:06:23;11.63;;;6.05;;
76745;SDS011;65671;49.976;20.038;2023-02-26T19:11:14;8.10;;;4.72;;
76745;SDS011;65671;49.976;20.038;2023-02-26T19:16:05;10.25;;;5.20;;
76745;SDS011;65671;49.976;20.038;2023-02-26T19:18:31;9.52;;;4.88;;
76745;SDS011;65671;49.976;20.038;2023-02-26T19:20:57;8.25;;;5.15;;
76745;SDS011;65671;49.976;20.038;2023-02-26T19:25:51;10.63;;;5.55;;
76745;SDS011;65671;49.976;20.038;2023-02-26T19:28:17;10.70;;;6.40;;
76745;SDS011;65671;49.976;20.038;2023-02-26T19:33:08;7.90;;;4.68;;
76745;SDS011;65671;49.976;20.038;2023-02-26T19:37:59;10.02;;;4.80;;
76745;SDS011;65671;49.976;20.038;2023-02-26T19:42:52;9.57;;;5.47;;
76745;SDS011;65671;49.976;20.038;2023-02-26T19:45:18;9.48;;;4.82;;
76745;SDS011;65671;49.976;20.038;2023-02-26T19:47:44;9.10;;;4.47;;
76745;SDS011;65671;49.976;20.038;2023-02-26T19:52:37;8.57;;;4.80;;
76745;SDS011;65671;49.976;20.038;2023-02-26T19:57:29;10.07;;;5.43;;
76745;SDS011;65671;49.976;20.038;2023-02-26T20:02:20;6.47;;;3.47;;
76745;SDS011;65671;49.976;20.038;2023-02-26T20:07:12;7.35;;;3.63;;
76745;SDS011;65671;49.976;20.038;2023-02-26T20:12:03;5.72;;;3.75;;
76745;SDS011;65671;49.976;20.038;2023-02-26T20:16:54;8.85;;;5.00;;
76745;SDS011;65671;49.976;20.038;2023-02-26T20:21:45;10.77;;;5.72;;
76745;SDS011;65671;49.976;20.038;2023-02-26T20:26:37;7.60;;;3.23;;
76745;SDS011;65671;49.976;20.038;2023-02-26T20:31:28;10.32;;;6.13;;
76745;SDS011;65671;49.976;20.038;2023-02-26T20:33:56;9.18;;;4.22;;
76745;SDS011;65671;49.976;20.038;2023-02-26T20:38:48;6.90;;;4.82;;
76745;SDS011;65671;49.976;20.038;2023-02-26T20:41:14;10.00;;;5.55;;
76745;SDS011;65671;49.976;20.038;2023-02-26T20:46:05;10.23;;;5.57;;
76745;SDS011;65671;49.976;20.038;2023-02-26T20:50:59;9.40;;;5.15;;
76745;SDS011;65671;49.976;20.038;2023-02-26T20:53:26;9.13;;;4.32;;